Time;durP1;ratioP1;P1;durP2;ratioP2;P2;SDS_P1;SDS_P2;PMS_P1;PMS_P2;Temp;Humidity;BMP_temperature;BMP_pressure;BME280_temperature;BME280_humidity;BME280_pressure;Samples;Min_cycle;Max_cycle;Signal;HPM_P1;HPM_P2
2022/10/08 00:00:29;;;;;;;5.47;4.20;;;;;;;11.56;100.00;101118.94;4997126;28;20230;-51
2022/10/08 00:02:56;;;;;;;4.45;3.85;;;;;;;11.55;100.00;101126.81;4998313;28;20355;-53
2022/10/08 00:05:22;;;;;;;7.03;4.30;;;;;;;11.56;100.00;101125.94;5003236;28;20672;-52
2022/10/08 00:07:49;;;;;;;9.07;4.70;;;;;;;11.53;100.00;101123.31;4994674;28;20237;-53
2022/10/08 00:10:16;;;;;;;7.60;4.70;;;;;;;11.40;100.00;101118.03;5005960;28;20248;-51
2022/10/08 00:12:43;;;;;;;6.00;4.33;;;;;;;11.40;100.00;101123.28;5004180;28;20739;-52
2022/10/08 00:15:10;;;;;;;5.63;4.50;;;;;;;11.34;100.00;101118.03;5002511;28;20730;-52
2022/10/08 00:17:36;;;;;;;8.37;4.77;;;;;;;11.28;100.00;101119.78;5002454;28;20336;-53
2022/10/08 00:20:03;;;;;;;5.07;4.07;;;;;;;11.25;100.00;101120.63;4999633;28;20746;-52
2022/10/08 00:22:29;;;;;;;4.93;4.03;;;;;;;11.32;100.00;101119.78;5000816;28;20769;-52
2022/10/08 00:24:56;;;;;;;7.03;4.30;;;;;;;11.35;100.00;101116.28;4999750;28;20774;-52
2022/10/08 00:27:24;;;;;;;6.70;4.70;;;;;;;11.37;100.00;101118.03;4998178;28;20311;-52
2022/10/08 00:29:51;;;;;;;8.20;3.77;;;;;;;11.35;100.00;101114.53;4993760;28;20240;-52
2022/10/08 00:32:18;;;;;;;5.23;4.17;;;;;;;11.31;100.00;101115.41;4995689;28;20261;-51
2022/10/08 00:34:45;;;;;;;5.97;5.30;;;;;;;11.33;100.00;101115.38;4995076;28;20252;-52
2022/10/08 00:37:12;;;;;;;7.87;4.97;;;;;;;11.21;100.00;101117.13;5000775;28;20313;-51
2022/10/08 00:39:40;;;;;;;5.40;4.63;;;;;;;11.21;100.00;101116.25;5006394;28;20253;-51
2022/10/08 00:42:06;;;;;;;7.07;4.43;;;;;;;11.19;100.00;101120.59;5005167;28;20902;-52
2022/10/08 00:44:58;;;;;;;6.78;4.63;;;;;;;11.08;100.00;101119.72;4996433;28;20250;-51
2022/10/08 00:47:31;;;;;;;5.33;4.70;;;;;;;11.03;100.00;101116.19;5006739;28;20233;-51
2022/10/08 00:50:00;;;;;;;9.27;4.70;;;;;;;10.99;100.00;101116.19;5004010;28;20229;-53
2022/10/08 00:52:29;;;;;;;4.80;4.27;;;;;;;10.90;100.00;101116.13;5003554;28;20244;-53
2022/10/08 00:54:56;;;;;;;7.37;4.77;;;;;;;10.85;100.00;101107.38;5002031;28;20299;-52
2022/10/08 00:57:22;;;;;;;5.67;4.97;;;;;;;10.72;100.00;101113.44;4999637;28;20240;-51
2022/10/08 00:59:49;;;;;;;6.47;4.90;;;;;;;10.76;100.00;101109.97;5003235;28;20742;-52
2022/10/08 01:02:18;;;;;;;8.50;5.57;;;;;;;10.60;100.00;101111.66;4994211;28;20773;-54
2022/10/08 01:04:45;;;;;;;8.57;5.37;;;;;;;10.55;100.00;101108.09;5001156;28;20261;-52
2022/10/08 01:07:15;;;;;;;7.33;5.23;;;;;;;10.50;100.00;101108.09;5005860;28;20236;-53
2022/10/08 01:09:46;;;;;;;6.17;5.30;;;;;;;10.45;100.00;101103.69;5005588;28;20680;-52
2022/10/08 01:12:22;;;;;;;11.87;6.70;;;;;;;10.36;100.00;101090.53;5003151;28;20233;-50
2022/10/08 01:14:54;;;;;;;8.40;5.50;;;;;;;10.36;100.00;101096.66;5022460;28;20224;-51
2022/10/08 01:17:27;;;;;;;9.20;5.63;;;;;;;10.29;100.00;101089.59;5022306;28;20302;-53
2022/10/08 01:20:04;;;;;;;7.97;5.40;;;;;;;10.31;100.00;101098.34;5021673;28;20327;-52
2022/10/08 01:22:43;;;;;;;7.50;5.23;;;;;;;10.30;100.00;101101.84;5025389;28;20319;-52
2022/10/08 01:25:32;;;;;;;6.27;5.47;;;;;;;10.29;100.00;101094.84;5018326;28;20898;-51
2022/10/08 01:28:04;;;;;;;10.07;6.33;;;;;;;10.27;100.00;101086.94;5021657;28;20228;-51
2022/10/08 01:30:33;;;;;;;8.30;5.17;;;;;;;10.30;100.00;101086.09;5008280;28;20233;-52
2022/10/08 01:33:03;;;;;;;10.87;5.53;;;;;;;10.30;100.00;101080.84;5011656;28;20225;-52
2022/10/08 01:35:30;;;;;;;10.57;5.83;;;;;;;10.29;100.00;101084.34;5020737;28;20232;-51
2022/10/08 01:37:59;;;;;;;8.43;5.90;;;;;;;10.38;100.00;101078.25;5021277;28;20232;-52
2022/10/08 01:40:29;;;;;;;8.20;5.93;;;;;;;10.36;100.00;101070.41;5021269;28;20232;-52
2022/10/08 01:42:56;;;;;;;8.70;5.37;;;;;;;10.33;100.00;101078.25;5018396;28;20609;-51
2022/10/08 01:45:31;;;;;;;7.87;5.20;;;;;;;10.45;100.00;101080.91;5011892;28;20241;-52
2022/10/08 01:47:59;;;;;;;6.60;5.60;;;;;;;10.56;100.00;101080.09;5011271;28;20246;-51
2022/10/08 01:50:30;;;;;;;7.87;5.70;;;;;;;10.56;100.00;101080.97;5019568;28;20860;-52
2022/10/08 01:52:59;;;;;;;7.73;5.80;;;;;;;10.52;100.00;101074.84;5024000;28;20224;-52
2022/10/08 01:55:28;;;;;;;8.90;5.50;;;;;;;10.54;100.00;101079.25;5016551;28;20243;-52
2022/10/08 01:57:57;;;;;;;13.20;5.63;;;;;;;10.49;100.00;101077.47;5019206;28;20237;-52
2022/10/08 02:00:25;;;;;;;9.67;6.33;;;;;;;10.42;100.00;101065.16;5008790;28;20324;-52
2022/10/08 02:02:54;;;;;;;7.07;5.47;;;;;;;10.37;100.00;101052.91;5017283;28;20927;-53
2022/10/08 02:05:21;;;;;;;8.67;6.50;;;;;;;10.32;100.00;101060.75;5020280;28;20241;-52
2022/10/08 02:07:48;;;;;;;7.20;5.47;;;;;;;10.31;100.00;101060.72;5015030;28;20229;-53
2022/10/08 02:10:16;;;;;;;7.40;6.03;;;;;;;10.40;100.00;101061.66;5004244;28;20245;-52
2022/10/08 02:12:44;;;;;;;5.97;5.37;;;;;;;10.34;100.00;101064.25;5018580;28;20237;-53
2022/10/08 02:15:14;;;;;;;5.83;5.23;;;;;;;10.29;100.00;101052.00;5032653;28;20240;-52
2022/10/08 02:17:50;;;;;;;14.23;7.47;;;;;;;10.25;100.00;101046.72;5016065;28;20224;-52
2022/10/08 02:20:21;;;;;;;9.10;6.03;;;;;;;10.30;100.00;101049.34;5024141;28;20235;-53
2022/10/08 02:22:52;;;;;;;7.90;6.13;;;;;;;10.24;100.00;101044.91;5016609;28;20230;-51
2022/10/08 02:25:24;;;;;;;6.60;5.37;;;;;;;10.20;100.00;101047.53;5021137;28;20742;-52
2022/10/08 02:27:55;;;;;;;7.63;5.80;;;;;;;10.16;100.00;101041.38;5021453;28;20240;-52
2022/10/08 02:30:22;;;;;;;6.57;5.97;;;;;;;10.29;100.00;101041.50;5014415;28;20236;-53
2022/10/08 02:32:55;;;;;;;7.63;5.83;;;;;;;10.31;100.00;101045.84;5013410;28;20348;-52
2022/10/08 02:35:25;;;;;;;6.30;5.43;;;;;;;10.33;100.00;101041.50;5011893;28;20244;-52
2022/10/08 02:37:56;;;;;;;8.80;6.33;;;;;;;10.33;100.00;101038.00;5008266;28;20594;-53
2022/10/08 02:40:23;;;;;;;8.77;5.23;;;;;;;10.33;100.00;101045.88;5009032;28;20233;-52
2022/10/08 02:42:55;;;;;;;5.97;5.37;;;;;;;10.30;100.00;101049.34;5013582;28;20248;-52
2022/10/08 02:45:25;;;;;;;8.30;5.73;;;;;;;10.30;100.00;101048.50;5013994;28;20248;-52
2022/10/08 02:47:57;;;;;;;11.67;5.27;;;;;;;10.32;100.00;101058.13;5006716;28;20243;-51
2022/10/08 02:50:25;;;;;;;8.23;5.13;;;;;;;10.39;100.00;101057.28;5016559;28;20229;-52
2022/10/08 02:52:52;;;;;;;7.87;5.63;;;;;;;10.35;100.00;101057.25;5014732;28;20403;-51
2022/10/08 02:55:27;;;;;;;7.20;5.87;;;;;;;10.40;100.00;101056.41;5013753;28;20442;-52
2022/10/08 02:57:57;;;;;;;13.00;5.63;;;;;;;10.47;100.00;101050.31;5019611;28;20234;-52
2022/10/08 03:00:25;;;;;;;6.13;5.50;;;;;;;10.50;100.00;101047.72;5016654;28;20272;-52
2022/10/08 03:03:00;;;;;;;5.77;5.17;;;;;;;10.58;100.00;101055.63;5016610;28;20228;-52
2022/10/08 03:05:27;;;;;;;6.20;5.60;;;;;;;10.47;100.00;101060.81;5014136;28;20240;-53
2022/10/08 03:07:55;;;;;;;8.60;6.10;;;;;;;10.41;100.00;101052.91;5013843;28;20232;-52
2022/10/08 03:10:24;;;;;;;7.73;6.03;;;;;;;10.30;100.00;101053.75;5016841;28;20233;-52
2022/10/08 03:12:52;;;;;;;9.37;6.53;;;;;;;10.33;100.00;101049.38;5021755;28;20260;-52
2022/10/08 03:15:18;;;;;;;6.90;6.00;;;;;;;10.28;100.00;101061.59;5017148;28;20232;-51
2022/10/08 03:17:47;;;;;;;8.00;6.63;;;;;;;10.33;100.00;101057.25;5016729;28;20249;-53
2022/10/08 03:20:15;;;;;;;6.57;5.37;;;;;;;10.36;100.00;101059.03;5014685;28;20785;-51
2022/10/08 03:22:41;;;;;;;6.77;6.03;;;;;;;10.40;100.00;101053.78;5013019;28;20322;-53
2022/10/08 03:25:08;;;;;;;9.23;5.60;;;;;;;10.41;100.00;101060.78;5008779;28;20744;-52
2022/10/08 03:27:35;;;;;;;6.70;6.07;;;;;;;10.34;100.00;101066.00;4998514;28;20233;-52
2022/10/08 03:30:02;;;;;;;8.13;6.43;;;;;;;10.33;100.00;101059.00;4996448;28;20252;-52
2022/10/08 03:32:29;;;;;;;5.47;4.87;;;;;;;10.29;100.00;101063.38;4996189;28;20719;-52
2022/10/08 03:34:56;;;;;;;8.27;5.20;;;;;;;-145.23;100.00;58621.06;4998752;28;20981;-51
2022/10/08 03:37:24;;;;;;;12.13;6.70;;;;;;;-145.23;100.00;58621.06;4994646;28;20885;-52
2022/10/08 03:39:51;;;;;;;8.13;5.37;;;;;;;-145.23;100.00;58621.06;4994895;28;20229;-52
2022/10/08 03:42:18;;;;;;;8.77;6.13;;;;;;;-145.23;100.00;58621.06;5000440;28;20494;-55
2022/10/08 03:44:46;;;;;;;8.30;5.53;;;;;;;-145.23;100.00;58621.06;4996328;28;20344;-52
2022/10/08 03:47:12;;;;;;;6.23;5.27;;;;;;;-145.23;100.00;58621.06;4991750;28;20245;-51
2022/10/08 03:49:40;;;;;;;6.40;4.47;;;;;;;-145.23;100.00;58621.06;4999691;28;20324;-52
2022/10/08 03:52:07;;;;;;;5.60;5.10;;;;;;;-145.23;100.00;58621.06;4996474;28;20233;-53
2022/10/08 03:54:35;;;;;;;10.00;5.13;;;;;;;-145.23;100.00;58621.06;5007738;28;20296;-52
2022/10/08 03:57:02;;;;;;;13.13;5.57;;;;;;;-145.23;100.00;58621.06;5014286;28;20224;-52
2022/10/08 03:59:29;;;;;;;6.37;5.07;;;;;;;-145.23;100.00;58621.06;5012699;28;20975;-51
2022/10/08 04:01:56;;;;;;;8.30;5.40;;;;;;;-145.23;100.00;58621.06;5000703;28;20646;-52
2022/10/08 04:04:22;;;;;;;7.10;5.53;;;;;;;-145.23;100.00;58621.06;5001282;28;20845;-51
2022/10/08 04:06:49;;;;;;;5.50;5.00;;;;;;;-145.23;100.00;58621.06;4995696;28;20253;-51
2022/10/08 04:09:16;;;;;;;7.07;4.47;;;;;;;-145.23;100.00;58621.06;5005309;28;20229;-52
2022/10/08 04:11:44;;;;;;;6.33;4.90;;;;;;;-145.23;100.00;58621.06;5000466;28;20313;-52
2022/10/08 04:14:10;;;;;;;7.17;4.63;;;;;;;-145.23;100.00;58621.06;4998929;28;20681;-52
2022/10/08 04:16:37;;;;;;;7.53;4.77;;;;;;;-145.23;100.00;58621.06;4996776;28;20238;-51
2022/10/08 04:19:04;;;;;;;5.30;4.00;;;;;;;-145.23;100.00;58621.06;5002064;28;20296;-52
2022/10/08 04:21:31;;;;;;;4.87;4.17;;;;;;;-145.23;100.00;58621.06;5007791;28;20320;-52
2022/10/08 04:23:58;;;;;;;5.70;4.53;;;;;;;-145.23;100.00;58621.06;4995788;28;20229;-52
2022/10/08 04:26:24;;;;;;;5.43;4.47;;;;;;;-145.23;100.00;58621.06;5000320;28;20221;-53
2022/10/08 04:28:53;;;;;;;5.37;4.87;;;;;;;-145.23;100.00;58621.06;5000859;28;20247;-52
2022/10/08 04:31:22;;;;;;;5.43;4.53;;;;;;;-145.23;100.00;58621.06;4999851;28;20237;-53
2022/10/08 04:33:50;;;;;;;6.13;4.70;;;;;;;-145.23;100.00;58621.06;4998640;28;20226;-53
2022/10/08 04:36:18;;;;;;;7.40;4.93;;;;;;;-145.23;100.00;58621.06;4999829;28;20291;-53
2022/10/08 04:38:45;;;;;;;5.60;4.97;;;;;;;-145.23;100.00;58621.06;5002207;28;20237;-52
2022/10/08 04:41:13;;;;;;;4.47;4.07;;;;;;;-145.23;100.00;58621.06;4998023;28;20226;-52
2022/10/08 04:43:41;;;;;;;4.70;4.30;;;;;;;-145.23;100.00;58621.06;5001348;28;20233;-52
2022/10/08 04:46:11;;;;;;;5.13;4.53;;;;;;;-145.23;100.00;58621.06;5000286;28;21076;-53
2022/10/08 04:48:38;;;;;;;4.53;4.10;;;;;;;-145.23;100.00;58621.06;4995725;28;20230;-52
2022/10/08 04:51:06;;;;;;;6.80;4.47;;;;;;;-145.23;100.00;58621.06;4998536;28;20233;-52
2022/10/08 04:53:33;;;;;;;4.60;3.90;;;;;;;-145.23;100.00;58621.06;5000484;28;20236;-52
2022/10/08 04:56:08;;;;;;;8.70;4.70;;;;;;;-145.23;100.00;58621.06;5005961;28;20316;-52
2022/10/08 04:58:35;;;;;;;7.40;3.60;;;;;;;-145.23;100.00;58621.06;5003415;28;20718;-52
2022/10/08 05:01:03;;;;;;;6.30;4.27;;;;;;;-145.23;100.00;58621.06;4994388;28;20226;-51
2022/10/08 05:03:31;;;;;;;5.57;4.13;;;;;;;-145.23;100.00;58621.06;4989772;28;20234;-52
2022/10/08 05:05:58;;;;;;;3.77;3.27;;;;;;;-145.23;100.00;58621.06;4997899;28;20329;-52
2022/10/08 05:08:24;;;;;;;5.80;4.40;;;;;;;-145.23;100.00;58621.06;5002927;28;20241;-51
2022/10/08 05:10:51;;;;;;;5.97;4.13;;;;;;;-145.23;100.00;58621.06;5005044;28;20582;-51
2022/10/08 05:13:17;;;;;;;6.00;4.00;;;;;;;-145.23;100.00;58621.06;5003689;28;20227;-51
2022/10/08 05:15:44;;;;;;;4.10;3.70;;;;;;;-145.23;100.00;58621.06;4998252;28;20944;-51
2022/10/08 05:18:11;;;;;;;5.17;3.90;;;;;;;-145.23;100.00;58621.06;4999728;28;20295;-53
2022/10/08 05:20:39;;;;;;;6.30;3.60;;;;;;;-145.23;100.00;58621.06;4995607;28;20241;-52
2022/10/08 05:23:06;;;;;;;4.07;3.40;;;;;;;-145.23;100.00;58621.06;4999465;28;20863;-51
2022/10/08 05:25:33;;;;;;;7.00;3.83;;;;;;;-145.23;100.00;58621.06;4996260;28;20709;-53
2022/10/08 05:28:00;;;;;;;6.03;3.87;;;;;;;-145.23;100.00;58621.06;4999981;28;20253;-52
2022/10/08 05:30:27;;;;;;;4.82;3.65;;;;;;;-145.23;100.00;58621.06;4996853;28;20328;-53
2022/10/08 05:32:53;;;;;;;6.33;4.13;;;;;;;-145.23;100.00;58621.06;4998270;28;20767;-52
2022/10/08 05:35:20;;;;;;;6.20;4.03;;;;;;;-145.23;100.00;58621.06;4993485;28;20608;-52
2022/10/08 05:37:51;;;;;;;4.97;4.13;;;;;;;-145.23;100.00;58621.06;5000888;28;20230;-53
2022/10/08 05:40:23;;;;;;;6.97;3.93;;;;;;;-145.23;100.00;58621.06;4997031;28;20237;-53
2022/10/08 05:42:50;;;;;;;5.70;3.50;;;;;;;-145.23;100.00;58621.06;4997456;28;20236;-53
2022/10/08 05:45:17;;;;;;;5.40;3.73;;;;;;;-145.23;100.00;58621.06;4991765;28;20240;-53
2022/10/08 05:47:44;;;;;;;5.03;3.30;;;;;;;-145.23;100.00;58621.06;5001087;28;20237;-52
2022/10/08 05:50:11;;;;;;;4.30;3.63;;;;;;;-145.23;100.00;58621.06;4988453;28;20786;-52
2022/10/08 05:52:38;;;;;;;7.40;3.53;;;;;;;-145.23;100.00;58621.06;4996655;28;20492;-51
2022/10/08 05:55:07;;;;;;;4.20;3.53;;;;;;;-145.23;100.00;58621.06;4995160;28;20252;-52
2022/10/08 05:57:34;;;;;;;9.90;3.92;;;;;;;-145.23;100.00;58621.06;4999128;28;20793;-51
2022/10/08 06:00:01;;;;;;;7.37;4.63;;;;;;;-145.23;100.00;58621.06;4991649;28;20242;-53
2022/10/08 06:02:28;;;;;;;3.97;3.60;;;;;;;-145.23;100.00;58621.06;5000947;28;20236;-51
2022/10/08 06:04:54;;;;;;;8.20;3.50;;;;;;;-145.23;100.00;58621.06;5003158;28;20228;-52
2022/10/08 06:07:21;;;;;;;6.97;4.07;;;;;;;-145.23;100.00;58621.06;4996100;28;20235;-53
2022/10/08 06:09:48;;;;;;;5.90;3.63;;;;;;;-145.23;100.00;58621.06;5000082;28;20225;-53
2022/10/08 06:12:16;;;;;;;3.80;3.40;;;;;;;-145.23;100.00;58621.06;5005162;28;20671;-52
2022/10/08 06:14:42;;;;;;;3.55;2.95;;;;;;;-145.23;100.00;58621.06;5002946;28;20256;-52
2022/10/08 06:17:09;;;;;;;5.40;4.00;;;;;;;-145.23;100.00;58621.06;5001432;28;20241;-53
2022/10/08 06:19:36;;;;;;;6.50;4.27;;;;;;;-145.23;100.00;58621.06;5003458;28;20229;-52
2022/10/08 06:22:04;;;;;;;4.97;3.70;;;;;;;-145.23;100.00;58621.06;4999356;28;20711;-53
2022/10/08 06:24:31;;;;;;;9.27;4.37;;;;;;;-145.23;100.00;58621.06;4999980;28;20592;-53
2022/10/08 06:26:57;;;;;;;4.83;3.77;;;;;;;-145.23;100.00;58621.06;5000002;28;20938;-52
2022/10/08 06:29:25;;;;;;;8.18;3.50;;;;;;;-145.23;100.00;58621.06;5001955;28;20312;-53
2022/10/08 06:31:52;;;;;;;4.87;3.33;;;;;;;-145.23;100.00;58621.06;5000994;28;20613;-53
2022/10/08 06:34:19;;;;;;;11.43;4.00;;;;;;;-145.23;100.00;58621.06;5000602;28;20236;-53
2022/10/08 06:36:46;;;;;;;6.03;4.03;;;;;;;-145.23;100.00;58621.06;5004449;28;20235;-53
2022/10/08 06:39:14;;;;;;;5.77;3.50;;;;;;;-145.23;100.00;58621.06;4999203;28;20232;-52
2022/10/08 06:41:41;;;;;;;4.87;3.87;;;;;;;-145.23;100.00;58621.06;4996781;28;20926;-53
2022/10/08 06:44:10;;;;;;;4.60;3.90;;;;;;;-145.23;100.00;58621.06;5005511;28;20260;-53
2022/10/08 06:46:38;;;;;;;7.17;3.73;;;;;;;-145.23;100.00;58621.06;5000289;28;20243;-51
2022/10/08 06:49:05;;;;;;;5.55;3.72;;;;;;;-145.23;100.00;58621.06;5003861;28;20311;-51
2022/10/08 06:51:32;;;;;;;11.20;4.05;;;;;;;-145.23;100.00;58621.06;4999174;28;20241;-51
2022/10/08 06:53:59;;;;;;;7.87;4.60;;;;;;;-145.23;100.00;58621.06;4992164;28;20779;-51
2022/10/08 06:56:26;;;;;;;5.15;3.17;;;;;;;-145.23;100.00;58621.06;4992034;28;20608;-52
2022/10/08 06:58:53;;;;;;;6.57;4.03;;;;;;;-145.23;100.00;58621.06;4999485;28;20804;-51
2022/10/08 07:01:22;;;;;;;5.57;3.60;;;;;;;-145.23;100.00;58621.06;5004016;28;20666;-52
2022/10/08 07:03:52;;;;;;;5.07;4.00;;;;;;;-145.23;100.00;58621.06;4995745;28;20229;-51
2022/10/08 07:06:19;;;;;;;7.93;3.53;;;;;;;-145.23;100.00;58621.06;5016034;28;20294;-52
2022/10/08 07:08:45;;;;;;;6.28;4.00;;;;;;;-145.23;100.00;58621.06;5018691;28;20295;-51
2022/10/08 07:11:14;;;;;;;5.45;4.10;;;;;;;-145.23;100.00;58621.06;5012356;28;20234;-52
2022/10/08 07:13:41;;;;;;;5.20;4.65;;;;;;;-145.23;100.00;58621.06;5015049;28;20834;-52
2022/10/08 07:16:10;;;;;;;8.18;4.78;;;;;;;-145.23;100.00;58621.06;5022568;28;20590;-52
2022/10/08 07:18:37;;;;;;;6.00;4.03;;;;;;;-145.23;100.00;58621.06;5012920;28;20239;-52
2022/10/08 07:21:06;;;;;;;5.18;3.97;;;;;;;-145.23;100.00;58621.06;5020832;28;20235;-53
2022/10/08 07:23:33;;;;;;;7.67;3.70;;;;;;;-145.23;100.00;58621.06;5020991;28;20228;-52
2022/10/08 07:26:02;;;;;;;4.13;3.50;;;;;;;-145.23;100.00;58621.06;5011385;28;20309;-52
2022/10/08 07:28:30;;;;;;;6.55;3.83;;;;;;;-145.23;100.00;58621.06;5021216;28;20229;-51
2022/10/08 07:30:57;;;;;;;7.35;3.90;;;;;;;-145.23;100.00;58621.06;5018045;28;20228;-51
2022/10/08 07:33:23;;;;;;;5.40;3.90;;;;;;;-145.23;100.00;58621.06;5018315;28;20849;-51
2022/10/08 07:35:50;;;;;;;5.82;3.20;;;;;;;-145.23;100.00;58621.06;5017113;28;21757;-52
2022/10/08 07:38:18;;;;;;;4.57;4.18;;;;;;;-145.23;100.00;58621.06;5027769;28;20224;-51
2022/10/08 07:40:45;;;;;;;7.75;3.72;;;;;;;-145.23;100.00;58621.06;5028844;28;20242;-52
2022/10/08 07:43:12;;;;;;;5.38;3.13;;;;;;;-145.23;100.00;58621.06;5024386;28;20243;-53
2022/10/08 07:45:43;;;;;;;7.78;2.83;;;;;;;-145.23;100.00;58621.06;5035033;28;20251;-53
2022/10/08 07:48:10;;;;;;;5.82;2.85;;;;;;;-145.23;100.00;58621.06;5040018;28;20236;-51
2022/10/08 07:50:36;;;;;;;5.97;2.90;;;;;;;-145.23;100.00;58621.06;5032791;28;20239;-51
2022/10/08 07:53:03;;;;;;;9.77;3.60;;;;;;;-145.23;100.00;58621.06;5035215;28;20235;-52
2022/10/08 07:55:31;;;;;;;6.65;3.35;;;;;;;-145.23;100.00;58621.06;5024677;28;20302;-52
2022/10/08 07:57:57;;;;;;;7.85;4.00;;;;;;;-145.23;100.00;58621.06;5015491;28;20848;-51
2022/10/08 08:00:23;;;;;;;6.32;3.17;;;;;;;-145.23;100.00;58621.06;5025406;28;20236;-51
2022/10/08 08:02:50;;;;;;;10.73;3.60;;;;;;;-145.23;100.00;58621.06;5025149;28;20244;-51
2022/10/08 08:05:16;;;;;;;5.00;2.63;;;;;;;-145.23;100.00;58621.06;5011241;28;20403;-51
2022/10/08 08:07:44;;;;;;;5.35;2.72;;;;;;;-145.23;100.00;58621.06;5026958;28;20472;-52
2022/10/08 08:10:10;;;;;;;5.38;2.38;;;;;;;-145.23;100.00;58621.06;5022370;28;20327;-51
2022/10/08 08:12:38;;;;;;;6.47;3.13;;;;;;;-145.23;100.00;58621.06;5017127;28;20228;-52
2022/10/08 08:15:05;;;;;;;10.10;3.78;;;;;;;-145.23;100.00;58621.06;5014231;28;20259;-52
2022/10/08 08:17:34;;;;;;;6.70;3.15;;;;;;;-145.23;100.00;58621.06;5027491;28;20251;-52
2022/10/08 08:20:01;;;;;;;9.27;2.78;;;;;;;-145.23;100.00;58621.06;5022517;28;20233;-52
2022/10/08 08:22:27;;;;;;;7.15;3.15;;;;;;;-145.23;100.00;58621.06;5026434;28;20642;-52
2022/10/08 08:24:54;;;;;;;7.90;3.15;;;;;;;-145.23;100.00;58621.06;5026455;28;20237;-52
2022/10/08 08:27:21;;;;;;;6.85;2.42;;;;;;;-145.23;100.00;58621.06;5018040;28;20703;-52
2022/10/08 08:29:48;;;;;;;4.20;2.47;;;;;;;-145.23;100.00;58621.06;5028556;28;20307;-52
2022/10/08 08:32:15;;;;;;;11.25;4.63;;;;;;;-145.23;100.00;58621.06;5023306;28;20228;-52
2022/10/08 08:34:41;;;;;;;7.22;3.40;;;;;;;-145.23;100.00;58621.06;5019789;28;20247;-51
2022/10/08 08:37:08;;;;;;;8.23;2.65;;;;;;;-145.23;100.00;58621.06;5027986;28;20237;-52
2022/10/08 08:39:34;;;;;;;10.07;2.80;;;;;;;-145.23;100.00;58621.06;5024535;28;20228;-52
2022/10/08 08:42:29;;;;;;;9.43;3.15;;;;;;;-145.23;100.00;58621.06;5024391;28;20228;-53
2022/10/08 08:44:59;;;;;;;5.18;2.45;;;;;;;-145.23;100.00;58621.06;4977849;28;20240;-52
2022/10/08 08:47:29;;;;;;;8.65;5.05;;;;;;;-145.23;100.00;58621.06;5015510;28;20821;-52
2022/10/08 08:49:57;;;;;;;8.40;2.55;;;;;;;-145.23;100.00;58621.06;5028779;28;20757;-52
2022/10/08 08:52:25;;;;;;;8.90;3.58;;;;;;;-145.23;100.00;58621.06;5017275;28;21004;-54
2022/10/08 08:54:53;;;;;;;8.65;3.30;;;;;;;-145.23;100.00;58621.06;5008934;28;20236;-53
2022/10/08 08:57:32;;;;;;;5.80;3.50;;;;;;;-145.23;100.00;58621.06;5008010;28;20619;-52
2022/10/08 09:00:02;;;;;;;6.85;2.67;;;;;;;-145.23;100.00;58621.06;5010857;28;20315;-51
2022/10/08 09:02:32;;;;;;;9.27;4.95;;;;;;;-145.23;100.00;58621.06;5007698;28;20344;-52
2022/10/08 09:05:00;;;;;;;8.68;3.42;;;;;;;-145.23;100.00;58621.06;5002328;28;20244;-51
2022/10/08 09:07:29;;;;;;;8.27;3.78;;;;;;;-145.23;100.00;58621.06;5010246;28;20249;-52
2022/10/08 09:09:57;;;;;;;15.50;4.45;;;;;;;-145.23;100.00;58621.06;5006731;28;20229;-51
2022/10/08 09:12:29;;;;;;;7.95;3.20;;;;;;;-145.23;100.00;58621.06;5006239;28;20225;-52
2022/10/08 09:14:58;;;;;;;7.10;3.72;;;;;;;-145.23;100.00;58621.06;4996190;28;20295;-53
2022/10/08 09:17:30;;;;;;;8.57;3.97;;;;;;;-145.23;100.00;58621.06;5006167;28;20224;-51
2022/10/08 09:19:57;;;;;;;7.95;3.58;;;;;;;-145.23;100.00;58621.06;5004130;28;20236;-55
2022/10/08 09:22:25;;;;;;;6.85;3.88;;;;;;;-145.23;100.00;58621.06;5003342;28;20396;-52
2022/10/08 09:24:53;;;;;;;6.25;4.18;;;;;;;-145.23;100.00;58621.06;5004378;28;20706;-54
2022/10/08 09:27:20;;;;;;;7.32;3.58;;;;;;;-145.23;100.00;58621.06;5010187;28;20236;-52
2022/10/08 09:29:46;;;;;;;12.80;3.83;;;;;;;-145.23;100.00;58621.06;5005788;28;20236;-51
2022/10/08 09:32:18;;;;;;;7.20;3.60;;;;;;;-145.23;100.00;58621.06;5006858;28;20228;-52
2022/10/08 09:34:47;;;;;;;5.38;3.58;;;;;;;-145.23;100.00;58621.06;5002019;28;20326;-51
2022/10/08 09:37:20;;;;;;;8.15;3.33;;;;;;;-145.23;100.00;58621.06;5001283;28;20303;-50
2022/10/08 09:40:17;;;;;;;7.65;3.65;;;;;;;-145.23;100.00;58621.06;5000761;28;20240;-53
2022/10/08 09:42:43;;;;;;;10.00;4.03;;;;;;;-145.23;100.00;58621.06;5002709;28;20233;-52
2022/10/08 09:45:32;;;;;;;11.32;4.43;;;;;;;-145.23;100.00;58621.06;5001573;28;20260;-53
2022/10/08 09:48:21;;;;;;;11.55;4.05;;;;;;;-145.23;100.00;58621.06;5000859;28;20688;-52
2022/10/08 09:50:53;;;;;;;9.88;3.70;;;;;;;-145.23;100.00;58621.06;5022756;28;20224;-52
2022/10/08 09:53:21;;;;;;;5.28;3.50;;;;;;;-145.23;100.00;58621.06;5002723;28;20234;-52
2022/10/08 09:55:50;;;;;;;11.43;4.25;;;;;;;-145.23;100.00;58621.06;5000691;28;20344;-52
2022/10/08 09:58:18;;;;;;;7.63;4.32;;;;;;;-145.23;100.00;58621.06;5002117;28;20237;-52
2022/10/08 10:00:45;;;;;;;11.63;4.07;;;;;;;-145.23;100.00;58621.06;5001810;28;20870;-52
2022/10/08 10:03:16;;;;;;;6.97;4.35;;;;;;;-145.23;100.00;58621.06;5007303;28;20230;-51
2022/10/08 10:05:43;;;;;;;5.95;3.50;;;;;;;-145.23;100.00;58621.06;5005801;28;20249;-50
2022/10/08 10:08:44;;;;;;;3.92;2.65;;;;;;;-145.23;100.00;58621.06;5000821;28;20639;-52
2022/10/08 10:11:13;;;;;;;9.85;3.65;;;;;;;-145.23;100.00;58621.06;4997921;28;20233;-51
2022/10/08 10:13:41;;;;;;;12.80;3.58;;;;;;;-145.23;100.00;58621.06;5002856;28;20241;-53
2022/10/08 10:16:12;;;;;;;8.52;3.58;;;;;;;-145.23;100.00;58621.06;5010401;28;20233;-53
2022/10/08 10:18:48;;;;;;;6.57;2.95;;;;;;;-145.23;100.00;58621.06;5002885;28;20617;-53
2022/10/08 10:21:17;;;;;;;9.57;4.85;;;;;;;-145.23;100.00;58621.06;4998821;28;20248;-52
2022/10/08 10:23:51;;;;;;;5.35;3.28;;;;;;;-145.23;100.00;58621.06;5002651;28;20235;-52
2022/10/08 10:26:21;;;;;;;9.30;3.83;;;;;;;-145.23;100.00;58621.06;4999429;28;20222;-53
2022/10/08 10:28:51;;;;;;;8.48;4.18;;;;;;;-145.23;100.00;58621.06;5001249;28;20222;-52
2022/10/08 10:31:22;;;;;;;8.00;3.63;;;;;;;-145.23;100.00;58621.06;4997759;28;20228;-51
2022/10/08 10:33:51;;;;;;;5.70;3.33;;;;;;;-145.23;100.00;58621.06;5002637;28;20229;-51
2022/10/08 10:36:18;;;;;;;5.00;3.05;;;;;;;-145.23;100.00;58621.06;4993609;28;20256;-51
2022/10/08 10:38:52;;;;;;;7.28;4.07;;;;;;;-145.23;100.00;58621.06;5003857;28;20229;-53
2022/10/08 10:41:23;;;;;;;11.15;5.53;;;;;;;-145.23;100.00;58621.06;5000783;28;20312;-52
2022/10/08 10:43:51;;;;;;;7.30;3.38;;;;;;;-145.23;100.00;58621.06;5004006;28;20235;-53
2022/10/08 10:46:28;;;;;;;10.07;3.78;;;;;;;-145.23;100.00;58621.06;5003572;28;20233;-51
2022/10/08 10:48:55;;;;;;;5.82;3.17;;;;;;;-145.23;100.00;58621.06;5003521;28;20225;-52
2022/10/08 10:51:54;;;;;;;6.20;3.55;;;;;;;-145.23;100.00;58621.06;5004178;28;20248;-51
2022/10/08 10:54:39;;;;;;;4.50;3.13;;;;;;;-145.23;100.00;58621.06;4976725;28;20235;-52
2022/10/08 10:57:09;;;;;;;7.72;3.15;;;;;;;-145.23;100.00;58621.06;5024242;28;20703;-52
2022/10/08 10:59:44;;;;;;;9.55;3.63;;;;;;;-145.23;100.00;58621.06;5011384;28;20750;-51
2022/10/08 11:02:16;;;;;;;7.32;3.72;;;;;;;-145.23;100.00;58621.06;5001761;28;20306;-51
2022/10/08 11:04:49;;;;;;;7.22;2.85;;;;;;;-145.23;100.00;58621.06;5001862;28;20472;-53
2022/10/08 11:07:50;;;;;;;5.18;2.75;;;;;;;-145.23;100.00;58621.06;5004831;28;20767;-52
2022/10/08 11:10:30;;;;;;;9.68;3.47;;;;;;;-145.23;100.00;58621.06;4997728;28;20225;-52
2022/10/08 11:13:05;;;;;;;6.93;3.33;;;;;;;-145.23;100.00;58621.06;5001097;28;20312;-51
2022/10/08 11:15:37;;;;;;;14.30;3.53;;;;;;;-145.23;100.00;58621.06;5005962;28;20238;-51
2022/10/08 11:18:20;;;;;;;8.02;3.17;;;;;;;-145.23;100.00;58621.06;5000182;28;20233;-51
2022/10/08 11:21:07;;;;;;;5.43;3.28;;;;;;;-145.23;100.00;58621.06;4994738;28;20272;-52